sensor_id;sensor_type;location;lat;lon;timestamp;P1;durP1;ratioP1;P2;durP2;ratioP2
56736;SDS011;42618;51.226;4.910;2023-01-08T00:01:07;1.33;;;1.02;;
56736;SDS011;42618;51.226;4.910;2023-01-08T00:03:35;4.28;;;1.35;;
56736;SDS011;42618;51.226;4.910;2023-01-08T00:08:32;4.13;;;1.60;;
56736;SDS011;42618;51.226;4.910;2023-01-08T00:10:59;7.75;;;1.52;;
56736;SDS011;42618;51.226;4.910;2023-01-08T00:13:26;2.33;;;1.30;;
56736;SDS011;42618;51.226;4.910;2023-01-08T00:15:53;5.95;;;1.85;;
56736;SDS011;42618;51.226;4.910;2023-01-08T00:18:20;3.13;;;1.13;;
56736;SDS011;42618;51.226;4.910;2023-01-08T00:20:47;5.15;;;1.30;;
56736;SDS011;42618;51.226;4.910;2023-01-08T00:23:15;2.55;;;1.08;;
56736;SDS011;42618;51.226;4.910;2023-01-08T00:25:44;4.88;;;1.10;;
56736;SDS011;42618;51.226;4.910;2023-01-08T00:28:12;7.97;;;1.60;;
56736;SDS011;42618;51.226;4.910;2023-01-08T00:30:40;3.20;;;0.75;;
56736;SDS011;42618;51.226;4.910;2023-01-08T00:33:08;3.65;;;0.82;;
56736;SDS011;42618;51.226;4.910;2023-01-08T00:35:39;3.58;;;0.70;;
56736;SDS011;42618;51.226;4.910;2023-01-08T00:38:06;5.15;;;1.20;;
56736;SDS011;42618;51.226;4.910;2023-01-08T00:40:33;2.92;;;1.35;;
56736;SDS011;42618;51.226;4.910;2023-01-08T00:43:01;7.43;;;1.17;;
56736;SDS011;42618;51.226;4.910;2023-01-08T00:45:29;1.67;;;1.38;;
56736;SDS011;42618;51.226;4.910;2023-01-08T00:47:56;1.50;;;0.97;;
56736;SDS011;42618;51.226;4.910;2023-01-08T00:50:23;2.22;;;0.95;;
56736;SDS011;42618;51.226;4.910;2023-01-08T00:52:50;3.00;;;1.42;;
56736;SDS011;42618;51.226;4.910;2023-01-08T00:55:16;5.88;;;1.45;;
56736;SDS011;42618;51.226;4.910;2023-01-08T00:57:43;2.42;;;0.85;;
56736;SDS011;42618;51.226;4.910;2023-01-08T01:00:12;4.67;;;1.10;;
56736;SDS011;42618;51.226;4.910;2023-01-08T01:02:40;2.95;;;1.23;;
56736;SDS011;42618;51.226;4.910;2023-01-08T01:05:07;4.57;;;1.67;;
56736;SDS011;42618;51.226;4.910;2023-01-08T01:10:02;1.17;;;0.87;;
56736;SDS011;42618;51.226;4.910;2023-01-08T01:12:29;3.92;;;1.30;;
56736;SDS011;42618;51.226;4.910;2023-01-08T01:14:56;4.28;;;0.70;;
56736;SDS011;42618;51.226;4.910;2023-01-08T01:17:23;3.03;;;0.60;;
56736;SDS011;42618;51.226;4.910;2023-01-08T01:19:49;2.75;;;0.30;;
56736;SDS011;42618;51.226;4.910;2023-01-08T01:22:16;2.70;;;0.45;;
56736;SDS011;42618;51.226;4.910;2023-01-08T01:24:43;2.35;;;0.40;;
56736;SDS011;42618;51.226;4.910;2023-01-08T01:27:10;2.05;;;0.20;;
56736;SDS011;42618;51.226;4.910;2023-01-08T01:29:37;1.10;;;0.10;;
56736;SDS011;42618;51.226;4.910;2023-01-08T01:32:03;2.10;;;0.30;;
56736;SDS011;42618;51.226;4.910;2023-01-08T01:34:31;1.15;;;0.30;;
56736;SDS011;42618;51.226;4.910;2023-01-08T01:36:58;1.42;;;0.20;;
56736;SDS011;42618;51.226;4.910;2023-01-08T01:39:25;3.05;;;0.20;;
56736;SDS011;42618;51.226;4.910;2023-01-08T01:41:52;1.50;;;0.20;;
56736;SDS011;42618;51.226;4.910;2023-01-08T01:52:09;4.25;;;0.45;;
56736;SDS011;42618;51.226;4.910;2023-01-08T01:54:37;3.08;;;0.20;;
56736;SDS011;42618;51.226;4.910;2023-01-08T01:57:03;1.70;;;0.10;;
56736;SDS011;42618;51.226;4.910;2023-01-08T01:59:32;2.42;;;0.20;;
56736;SDS011;42618;51.226;4.910;2023-01-08T02:01:59;1.88;;;0.20;;
56736;SDS011;42618;51.226;4.910;2023-01-08T02:04:26;4.33;;;0.33;;
56736;SDS011;42618;51.226;4.910;2023-01-08T02:06:56;5.75;;;0.20;;
56736;SDS011;42618;51.226;4.910;2023-01-08T02:12:29;4.18;;;0.30;;
56736;SDS011;42618;51.226;4.910;2023-01-08T02:20:26;0.40;;;0.13;;
56736;SDS011;42618;51.226;4.910;2023-01-08T02:28:05;2.63;;;0.40;;
56736;SDS011;42618;51.226;4.910;2023-01-08T02:30:36;3.53;;;0.20;;
56736;SDS011;42618;51.226;4.910;2023-01-08T02:33:03;2.55;;;0.40;;
56736;SDS011;42618;51.226;4.910;2023-01-08T02:35:37;2.58;;;0.20;;
56736;SDS011;42618;51.226;4.910;2023-01-08T02:38:14;3.65;;;0.30;;
56736;SDS011;42618;51.226;4.910;2023-01-08T02:46:06;3.85;;;0.30;;
56736;SDS011;42618;51.226;4.910;2023-01-08T02:48:38;2.92;;;0.38;;
56736;SDS011;42618;51.226;4.910;2023-01-08T02:51:11;1.75;;;0.55;;
56736;SDS011;42618;51.226;4.910;2023-01-08T02:54:01;4.72;;;0.30;;
56736;SDS011;42618;51.226;4.910;2023-01-08T02:56:33;2.00;;;0.40;;
56736;SDS011;42618;51.226;4.910;2023-01-08T02:59:03;3.00;;;0.30;;
56736;SDS011;42618;51.226;4.910;2023-01-08T03:01:31;5.53;;;0.50;;
56736;SDS011;42618;51.226;4.910;2023-01-08T03:04:05;4.13;;;0.60;;
56736;SDS011;42618;51.226;4.910;2023-01-08T03:06:36;2.67;;;0.20;;
56736;SDS011;42618;51.226;4.910;2023-01-08T03:09:04;7.63;;;0.60;;
56736;SDS011;42618;51.226;4.910;2023-01-08T03:11:34;6.80;;;0.45;;
56736;SDS011;42618;51.226;4.910;2023-01-08T03:14:25;4.05;;;0.50;;
56736;SDS011;42618;51.226;4.910;2023-01-08T03:16:57;7.15;;;0.73;;
56736;SDS011;42618;51.226;4.910;2023-01-08T03:19:41;4.70;;;0.40;;
56736;SDS011;42618;51.226;4.910;2023-01-08T03:22:10;3.67;;;0.40;;
56736;SDS011;42618;51.226;4.910;2023-01-08T03:24:40;3.60;;;0.30;;
56736;SDS011;42618;51.226;4.910;2023-01-08T03:27:09;3.53;;;0.40;;
56736;SDS011;42618;51.226;4.910;2023-01-08T03:29:41;2.30;;;0.68;;
56736;SDS011;42618;51.226;4.910;2023-01-08T03:32:10;2.10;;;0.52;;
56736;SDS011;42618;51.226;4.910;2023-01-08T03:34:41;3.50;;;0.40;;
56736;SDS011;42618;51.226;4.910;2023-01-08T03:37:10;3.08;;;0.50;;
56736;SDS011;42618;51.226;4.910;2023-01-08T03:39:51;1.95;;;0.35;;
56736;SDS011;42618;51.226;4.910;2023-01-08T03:42:39;5.15;;;0.47;;
56736;SDS011;42618;51.226;4.910;2023-01-08T03:45:06;3.28;;;0.50;;
56736;SDS011;42618;51.226;4.910;2023-01-08T03:47:33;2.55;;;0.50;;
56736;SDS011;42618;51.226;4.910;2023-01-08T03:50:04;5.78;;;0.60;;
56736;SDS011;42618;51.226;4.910;2023-01-08T03:52:34;2.28;;;0.50;;
56736;SDS011;42618;51.226;4.910;2023-01-08T03:55:01;1.90;;;0.70;;
56736;SDS011;42618;51.226;4.910;2023-01-08T03:57:28;4.95;;;0.55;;
56736;SDS011;42618;51.226;4.910;2023-01-08T03:59:55;3.10;;;0.50;;
56736;SDS011;42618;51.226;4.910;2023-01-08T04:02:22;1.15;;;0.40;;
56736;SDS011;42618;51.226;4.910;2023-01-08T04:04:49;2.58;;;0.20;;
56736;SDS011;42618;51.226;4.910;2023-01-08T04:07:15;2.47;;;0.20;;
56736;SDS011;42618;51.226;4.910;2023-01-08T04:09:42;1.60;;;0.28;;
56736;SDS011;42618;51.226;4.910;2023-01-08T04:12:09;0.77;;;0.20;;
56736;SDS011;42618;51.226;4.910;2023-01-08T04:14:35;2.58;;;0.40;;
56736;SDS011;42618;51.226;4.910;2023-01-08T04:17:02;3.40;;;0.50;;
56736;SDS011;42618;51.226;4.910;2023-01-08T04:19:29;1.48;;;0.52;;
56736;SDS011;42618;51.226;4.910;2023-01-08T04:21:56;3.13;;;0.30;;
56736;SDS011;42618;51.226;4.910;2023-01-08T04:24:23;1.35;;;0.30;;
56736;SDS011;42618;51.226;4.910;2023-01-08T04:26:49;2.15;;;0.43;;
56736;SDS011;42618;51.226;4.910;2023-01-08T04:29:16;3.95;;;0.38;;
56736;SDS011;42618;51.226;4.910;2023-01-08T04:31:43;0.98;;;0.35;;
56736;SDS011;42618;51.226;4.910;2023-01-08T04:34:10;0.90;;;0.20;;
56736;SDS011;42618;51.226;4.910;2023-01-08T04:36:36;5.97;;;0.50;;
56736;SDS011;42618;51.226;4.910;2023-01-08T04:39:03;1.17;;;0.17;;
56736;SDS011;42618;51.226;4.910;2023-01-08T04:41:30;0.40;;;0.30;;
56736;SDS011;42618;51.226;4.910;2023-01-08T04:43:57;2.67;;;0.45;;
56736;SDS011;42618;51.226;4.910;2023-01-08T04:46:24;4.35;;;0.85;;
56736;SDS011;42618;51.226;4.910;2023-01-08T04:48:51;3.50;;;0.60;;
56736;SDS011;42618;51.226;4.910;2023-01-08T04:51:18;3.67;;;0.40;;
56736;SDS011;42618;51.226;4.910;2023-01-08T04:53:44;3.97;;;1.20;;
56736;SDS011;42618;51.226;4.910;2023-01-08T04:56:11;4.03;;;0.38;;
56736;SDS011;42618;51.226;4.910;2023-01-08T04:58:38;1.48;;;0.30;;
56736;SDS011;42618;51.226;4.910;2023-01-08T05:01:10;2.83;;;0.30;;
56736;SDS011;42618;51.226;4.910;2023-01-08T05:03:39;1.88;;;1.20;;
56736;SDS011;42618;51.226;4.910;2023-01-08T05:06:06;2.75;;;0.40;;
56736;SDS011;42618;51.226;4.910;2023-01-08T05:08:33;5.18;;;0.30;;
56736;SDS011;42618;51.226;4.910;2023-01-08T05:11:00;4.70;;;0.30;;
56736;SDS011;42618;51.226;4.910;2023-01-08T05:13:27;1.95;;;0.28;;
56736;SDS011;42618;51.226;4.910;2023-01-08T05:15:58;1.80;;;0.43;;
56736;SDS011;42618;51.226;4.910;2023-01-08T05:18:26;4.80;;;0.80;;
56736;SDS011;42618;51.226;4.910;2023-01-08T05:20:54;3.63;;;0.30;;
56736;SDS011;42618;51.226;4.910;2023-01-08T05:23:24;6.63;;;0.52;;
56736;SDS011;42618;51.226;4.910;2023-01-08T05:25:51;7.47;;;0.30;;
56736;SDS011;42618;51.226;4.910;2023-01-08T05:28:18;4.82;;;0.40;;
56736;SDS011;42618;51.226;4.910;2023-01-08T05:30:44;3.55;;;0.13;;
56736;SDS011;42618;51.226;4.910;2023-01-08T05:33:11;4.00;;;0.32;;
56736;SDS011;42618;51.226;4.910;2023-01-08T05:35:38;6.97;;;0.28;;
56736;SDS011;42618;51.226;4.910;2023-01-08T05:38:05;2.78;;;0.25;;
56736;SDS011;42618;51.226;4.910;2023-01-08T05:40:32;7.55;;;0.35;;
56736;SDS011;42618;51.226;4.910;2023-01-08T05:42:59;2.55;;;0.30;;
56736;SDS011;42618;51.226;4.910;2023-01-08T05:45:26;8.23;;;0.40;;
56736;SDS011;42618;51.226;4.910;2023-01-08T05:47:53;5.97;;;0.50;;
56736;SDS011;42618;51.226;4.910;2023-01-08T05:50:20;4.20;;;0.55;;
56736;SDS011;42618;51.226;4.910;2023-01-08T05:52:47;6.28;;;0.50;;
56736;SDS011;42618;51.226;4.910;2023-01-08T05:55:14;3.83;;;0.30;;
56736;SDS011;42618;51.226;4.910;2023-01-08T05:57:41;3.38;;;0.30;;
56736;SDS011;42618;51.226;4.910;2023-01-08T06:00:08;3.70;;;0.38;;
56736;SDS011;42618;51.226;4.910;2023-01-08T06:02:38;8.13;;;0.47;;
56736;SDS011;42618;51.226;4.910;2023-01-08T06:05:05;9.82;;;0.65;;
56736;SDS011;42618;51.226;4.910;2023-01-08T06:07:32;7.43;;;0.57;;
56736;SDS011;42618;51.226;4.910;2023-01-08T06:09:59;6.38;;;0.70;;
56736;SDS011;42618;51.226;4.910;2023-01-08T06:12:26;7.22;;;0.63;;
56736;SDS011;42618;51.226;4.910;2023-01-08T06:14:52;4.80;;;0.63;;
56736;SDS011;42618;51.226;4.910;2023-01-08T06:17:19;9.23;;;0.50;;
56736;SDS011;42618;51.226;4.910;2023-01-08T06:19:46;3.13;;;0.47;;
56736;SDS011;42618;51.226;4.910;2023-01-08T06:22:13;9.50;;;0.80;;
56736;SDS011;42618;51.226;4.910;2023-01-08T06:24:40;5.93;;;0.70;;
56736;SDS011;42618;51.226;4.910;2023-01-08T06:27:07;6.75;;;0.60;;
56736;SDS011;42618;51.226;4.910;2023-01-08T06:29:33;3.08;;;0.60;;
56736;SDS011;42618;51.226;4.910;2023-01-08T06:32:00;10.02;;;1.02;;
56736;SDS011;42618;51.226;4.910;2023-01-08T06:34:27;5.53;;;0.95;;
56736;SDS011;42618;51.226;4.910;2023-01-08T06:36:54;5.90;;;0.50;;
56736;SDS011;42618;51.226;4.910;2023-01-08T06:39:20;7.47;;;0.50;;
56736;SDS011;42618;51.226;4.910;2023-01-08T06:41:47;5.05;;;0.50;;
56736;SDS011;42618;51.226;4.910;2023-01-08T06:44:14;6.63;;;1.05;;
56736;SDS011;42618;51.226;4.910;2023-01-08T06:46:41;9.48;;;0.77;;
56736;SDS011;42618;51.226;4.910;2023-01-08T06:49:08;9.38;;;0.60;;
56736;SDS011;42618;51.226;4.910;2023-01-08T06:51:35;3.40;;;0.40;;
56736;SDS011;42618;51.226;4.910;2023-01-08T06:54:02;2.70;;;0.40;;
56736;SDS011;42618;51.226;4.910;2023-01-08T06:56:29;2.90;;;0.38;;
56736;SDS011;42618;51.226;4.910;2023-01-08T06:58:55;2.53;;;0.50;;
56736;SDS011;42618;51.226;4.910;2023-01-08T07:01:22;6.03;;;0.85;;
56736;SDS011;42618;51.226;4.910;2023-01-08T07:03:49;5.60;;;0.40;;
56736;SDS011;42618;51.226;4.910;2023-01-08T07:06:17;3.20;;;0.55;;
56736;SDS011;42618;51.226;4.910;2023-01-08T07:08:45;3.00;;;0.70;;
56736;SDS011;42618;51.226;4.910;2023-01-08T07:11:13;3.58;;;0.50;;
56736;SDS011;42618;51.226;4.910;2023-01-08T07:13:40;5.80;;;0.50;;
56736;SDS011;42618;51.226;4.910;2023-01-08T07:16:07;7.47;;;0.60;;
56736;SDS011;42618;51.226;4.910;2023-01-08T07:18:35;2.88;;;0.40;;
56736;SDS011;42618;51.226;4.910;2023-01-08T07:21:06;6.55;;;0.43;;
56736;SDS011;42618;51.226;4.910;2023-01-08T07:23:33;7.55;;;0.95;;
56736;SDS011;42618;51.226;4.910;2023-01-08T07:26:01;1.70;;;0.40;;
56736;SDS011;42618;51.226;4.910;2023-01-08T07:28:28;4.35;;;1.05;;
56736;SDS011;42618;51.226;4.910;2023-01-08T07:30:56;5.18;;;0.45;;
56736;SDS011;42618;51.226;4.910;2023-01-08T07:33:22;3.92;;;0.40;;
56736;SDS011;42618;51.226;4.910;2023-01-08T07:35:53;2.30;;;0.40;;
56736;SDS011;42618;51.226;4.910;2023-01-08T07:38:20;7.28;;;0.70;;
56736;SDS011;42618;51.226;4.910;2023-01-08T07:40:47;4.28;;;0.60;;
56736;SDS011;42618;51.226;4.910;2023-01-08T07:43:14;12.70;;;0.80;;
56736;SDS011;42618;51.226;4.910;2023-01-08T07:45:41;10.27;;;0.90;;
56736;SDS011;42618;51.226;4.910;2023-01-08T07:48:08;6.65;;;0.68;;
56736;SDS011;42618;51.226;4.910;2023-01-08T07:50:36;2.60;;;0.50;;
56736;SDS011;42618;51.226;4.910;2023-01-08T07:53:03;8.83;;;0.70;;
56736;SDS011;42618;51.226;4.910;2023-01-08T07:55:30;4.45;;;0.43;;
56736;SDS011;42618;51.226;4.910;2023-01-08T07:57:57;4.50;;;0.50;;
56736;SDS011;42618;51.226;4.910;2023-01-08T08:00:24;10.10;;;0.70;;
56736;SDS011;42618;51.226;4.910;2023-01-08T08:02:51;4.87;;;0.60;;
56736;SDS011;42618;51.226;4.910;2023-01-08T08:05:18;7.80;;;0.50;;
56736;SDS011;42618;51.226;4.910;2023-01-08T08:07:45;5.72;;;0.70;;
56736;SDS011;42618;51.226;4.910;2023-01-08T08:10:12;10.45;;;1.10;;
56736;SDS011;42618;51.226;4.910;2023-01-08T08:12:38;8.98;;;0.47;;
56736;SDS011;42618;51.226;4.910;2023-01-08T08:15:05;4.22;;;0.73;;
56736;SDS011;42618;51.226;4.910;2023-01-08T08:17:33;3.53;;;0.60;;
56736;SDS011;42618;51.226;4.910;2023-01-08T08:20:00;7.00;;;0.80;;
56736;SDS011;42618;51.226;4.910;2023-01-08T08:22:27;4.95;;;1.17;;
56736;SDS011;42618;51.226;4.910;2023-01-08T08:24:54;5.18;;;1.13;;
56736;SDS011;42618;51.226;4.910;2023-01-08T08:27:20;4.65;;;0.93;;
56736;SDS011;42618;51.226;4.910;2023-01-08T08:29:49;8.30;;;1.60;;
56736;SDS011;42618;51.226;4.910;2023-01-08T08:32:16;5.28;;;1.08;;
56736;SDS011;42618;51.226;4.910;2023-01-08T08:34:43;10.48;;;1.17;;
56736;SDS011;42618;51.226;4.910;2023-01-08T08:37:09;4.03;;;1.10;;
56736;SDS011;42618;51.226;4.910;2023-01-08T08:39:36;8.30;;;0.70;;
56736;SDS011;42618;51.226;4.910;2023-01-08T08:42:03;7.10;;;1.00;;
56736;SDS011;42618;51.226;4.910;2023-01-08T08:44:30;7.60;;;0.80;;
56736;SDS011;42618;51.226;4.910;2023-01-08T08:46:57;5.10;;;0.90;;
56736;SDS011;42618;51.226;4.910;2023-01-08T08:49:24;11.48;;;1.40;;
56736;SDS011;42618;51.226;4.910;2023-01-08T08:51:50;8.85;;;2.15;;
56736;SDS011;42618;51.226;4.910;2023-01-08T08:54:18;7.30;;;1.08;;
56736;SDS011;42618;51.226;4.910;2023-01-08T08:56:46;10.73;;;1.48;;
56736;SDS011;42618;51.226;4.910;2023-01-08T08:59:13;8.00;;;1.20;;
56736;SDS011;42618;51.226;4.910;2023-01-08T09:01:40;10.30;;;1.08;;
56736;SDS011;42618;51.226;4.910;2023-01-08T09:04:07;6.40;;;1.23;;
56736;SDS011;42618;51.226;4.910;2023-01-08T09:06:34;5.80;;;1.08;;
56736;SDS011;42618;51.226;4.910;2023-01-08T09:09:00;4.78;;;0.90;;
56736;SDS011;42618;51.226;4.910;2023-01-08T09:11:28;6.45;;;1.02;;
56736;SDS011;42618;51.226;4.910;2023-01-08T09:13:54;9.65;;;1.08;;
56736;SDS011;42618;51.226;4.910;2023-01-08T09:16:21;8.93;;;1.30;;
56736;SDS011;42618;51.226;4.910;2023-01-08T09:18:48;6.93;;;1.40;;
56736;SDS011;42618;51.226;4.910;2023-01-08T09:21:15;5.28;;;1.05;;
56736;SDS011;42618;51.226;4.910;2023-01-08T09:23:41;7.72;;;1.40;;
56736;SDS011;42618;51.226;4.910;2023-01-08T09:26:08;9.73;;;1.52;;
56736;SDS011;42618;51.226;4.910;2023-01-08T09:28:35;10.05;;;1.38;;
56736;SDS011;42618;51.226;4.910;2023-01-08T09:33:30;6.13;;;1.30;;
56736;SDS011;42618;51.226;4.910;2023-01-08T09:35:57;6.75;;;1.27;;
56736;SDS011;42618;51.226;4.910;2023-01-08T09:38:23;6.72;;;1.33;;
56736;SDS011;42618;51.226;4.910;2023-01-08T09:43:21;6.35;;;1.70;;
56736;SDS011;42618;51.226;4.910;2023-01-08T09:45:52;12.13;;;4.25;;
56736;SDS011;42618;51.226;4.910;2023-01-08T09:48:24;13.20;;;4.53;;
56736;SDS011;42618;51.226;4.910;2023-01-08T09:50:54;10.55;;;3.00;;
56736;SDS011;42618;51.226;4.910;2023-01-08T09:53:21;8.43;;;1.15;;
56736;SDS011;42618;51.226;4.910;2023-01-08T09:55:55;5.10;;;1.10;;
56736;SDS011;42618;51.226;4.910;2023-01-08T09:58:37;3.22;;;0.63;;
56736;SDS011;42618;51.226;4.910;2023-01-08T10:01:05;7.65;;;1.20;;
56736;SDS011;42618;51.226;4.910;2023-01-08T10:03:38;4.82;;;1.08;;
56736;SDS011;42618;51.226;4.910;2023-01-08T10:06:11;7.88;;;1.20;;
56736;SDS011;42618;51.226;4.910;2023-01-08T10:08:39;2.78;;;0.80;;
56736;SDS011;42618;51.226;4.910;2023-01-08T10:11:07;5.07;;;0.90;;
56736;SDS011;42618;51.226;4.910;2023-01-08T10:13:38;1.98;;;0.30;;
56736;SDS011;42618;51.226;4.910;2023-01-08T10:16:10;0.85;;;0.30;;
56736;SDS011;42618;51.226;4.910;2023-01-08T10:18:46;1.00;;;0.38;;
56736;SDS011;42618;51.226;4.910;2023-01-08T10:21:13;2.65;;;0.40;;
56736;SDS011;42618;51.226;4.910;2023-01-08T10:23:51;0.50;;;0.30;;
56736;SDS011;42618;51.226;4.910;2023-01-08T10:26:27;2.47;;;0.43;;
56736;SDS011;42618;51.226;4.910;2023-01-08T10:31:47;1.27;;;0.10;;
56736;SDS011;42618;51.226;4.910;2023-01-08T10:34:27;0.90;;;0.20;;
56736;SDS011;42618;51.226;4.910;2023-01-08T10:36:58;1.45;;;0.30;;
56736;SDS011;42618;51.226;4.910;2023-01-08T10:39:26;2.28;;;0.30;;
56736;SDS011;42618;51.226;4.910;2023-01-08T10:41:56;0.38;;;0.20;;
56736;SDS011;42618;51.226;4.910;2023-01-08T10:44:29;0.82;;;0.25;;
56736;SDS011;42618;51.226;4.910;2023-01-08T10:46:58;1.23;;;0.30;;
56736;SDS011;42618;51.226;4.910;2023-01-08T10:49:33;0.32;;;0.20;;
56736;SDS011;42618;51.226;4.910;2023-01-08T10:52:04;0.63;;;0.10;;
56736;SDS011;42618;51.226;4.910;2023-01-08T10:54:38;1.73;;;0.30;;
56736;SDS011;42618;51.226;4.910;2023-01-08T11:00:21;2.17;;;0.15;;
56736;SDS011;42618;51.226;4.910;2023-01-08T11:02:57;0.63;;;0.20;;
56736;SDS011;42618;51.226;4.910;2023-01-08T11:05:29;0.80;;;0.13;;
56736;SDS011;42618;51.226;4.910;2023-01-08T11:07:58;0.88;;;0.20;;
56736;SDS011;42618;51.226;4.910;2023-01-08T11:10:28;1.17;;;0.20;;
56736;SDS011;42618;51.226;4.910;2023-01-08T11:12:56;0.85;;;0.38;;
56736;SDS011;42618;51.226;4.910;2023-01-08T11:18:03;1.33;;;0.80;;
56736;SDS011;42618;51.226;4.910;2023-01-08T11:20:31;2.30;;;0.20;;
56736;SDS011;42618;51.226;4.910;2023-01-08T11:29:02;0.43;;;0.20;;
56736;SDS011;42618;51.226;4.910;2023-01-08T11:31:38;1.75;;;0.10;;
56736;SDS011;42618;51.226;4.910;2023-01-08T11:34:33;2.60;;;0.28;;
56736;SDS011;42618;51.226;4.910;2023-01-08T11:37:13;3.67;;;0.20;;
56736;SDS011;42618;51.226;4.910;2023-01-08T11:39:46;0.88;;;0.20;;
56736;SDS011;42618;51.226;4.910;2023-01-08T11:42:18;2.35;;;0.30;;
56736;SDS011;42618;51.226;4.910;2023-01-08T11:50:43;1.90;;;0.30;;
56736;SDS011;42618;51.226;4.910;2023-01-08T11:53:25;2.20;;;0.30;;
56736;SDS011;42618;51.226;4.910;2023-01-08T11:56:13;0.43;;;0.20;;
56736;SDS011;42618;51.226;4.910;2023-01-08T12:07:00;2.75;;;0.30;;
56736;SDS011;42618;51.226;4.910;2023-01-08T12:09:49;3.33;;;0.60;;
56736;SDS011;42618;51.226;4.910;2023-01-08T12:12:33;1.00;;;0.20;;
56736;SDS011;42618;51.226;4.910;2023-01-08T12:20:37;1.58;;;0.30;;
56736;SDS011;42618;51.226;4.910;2023-01-08T12:23:21;2.70;;;0.63;;
56736;SDS011;42618;51.226;4.910;2023-01-08T12:33:46;2.00;;;0.60;;
56736;SDS011;42618;51.226;4.910;2023-01-08T12:36:22;4.80;;;0.63;;
56736;SDS011;42618;51.226;4.910;2023-01-08T12:39:15;4.97;;;0.77;;
56736;SDS011;42618;51.226;4.910;2023-01-08T12:42:08;3.55;;;0.57;;
56736;SDS011;42618;51.226;4.910;2023-01-08T12:44:38;3.15;;;0.35;;
56736;SDS011;42618;51.226;4.910;2023-01-08T12:47:06;5.03;;;0.43;;
56736;SDS011;42618;51.226;4.910;2023-01-08T12:49:47;4.50;;;0.40;;
56736;SDS011;42618;51.226;4.910;2023-01-08T12:52:23;4.57;;;0.50;;
56736;SDS011;42618;51.226;4.910;2023-01-08T12:55:08;2.53;;;0.50;;
56736;SDS011;42618;51.226;4.910;2023-01-08T12:57:59;2.50;;;0.45;;
56736;SDS011;42618;51.226;4.910;2023-01-08T13:00:46;5.30;;;0.73;;
56736;SDS011;42618;51.226;4.910;2023-01-08T13:03:27;1.85;;;0.40;;
56736;SDS011;42618;51.226;4.910;2023-01-08T13:06:12;3.58;;;0.50;;
56736;SDS011;42618;51.226;4.910;2023-01-08T13:08:47;4.88;;;0.50;;
56736;SDS011;42618;51.226;4.910;2023-01-08T13:11:27;4.00;;;0.63;;
56736;SDS011;42618;51.226;4.910;2023-01-08T13:14:01;7.07;;;1.00;;
56736;SDS011;42618;51.226;4.910;2023-01-08T13:16:35;3.38;;;0.60;;
56736;SDS011;42618;51.226;4.910;2023-01-08T13:19:05;4.40;;;0.80;;
56736;SDS011;42618;51.226;4.910;2023-01-08T13:21:50;5.18;;;0.40;;
56736;SDS011;42618;51.226;4.910;2023-01-08T13:24:41;2.65;;;0.40;;
56736;SDS011;42618;51.226;4.910;2023-01-08T13:29:44;3.97;;;0.57;;
56736;SDS011;42618;51.226;4.910;2023-01-08T13:32:22;1.92;;;0.45;;
56736;SDS011;42618;51.226;4.910;2023-01-08T13:37:43;4.50;;;0.68;;
56736;SDS011;42618;51.226;4.910;2023-01-08T13:43:33;9.55;;;4.25;;
56736;SDS011;42618;51.226;4.910;2023-01-08T13:46:06;5.32;;;0.90;;
56736;SDS011;42618;51.226;4.910;2023-01-08T13:51:39;3.78;;;0.28;;
56736;SDS011;42618;51.226;4.910;2023-01-08T13:56:41;6.88;;;1.20;;
56736;SDS011;42618;51.226;4.910;2023-01-08T14:04:49;2.72;;;0.38;;
56736;SDS011;42618;51.226;4.910;2023-01-08T14:07:16;3.60;;;0.28;;
56736;SDS011;42618;51.226;4.910;2023-01-08T14:09:43;2.50;;;0.20;;
56736;SDS011;42618;51.226;4.910;2023-01-08T14:12:15;5.33;;;0.50;;
56736;SDS011;42618;51.226;4.910;2023-01-08T14:14:55;1.92;;;0.40;;
56736;SDS011;42618;51.226;4.910;2023-01-08T14:17:29;2.53;;;0.50;;
56736;SDS011;42618;51.226;4.910;2023-01-08T14:19:57;3.45;;;0.57;;
56736;SDS011;42618;51.226;4.910;2023-01-08T14:22:31;2.05;;;0.38;;
56736;SDS011;42618;51.226;4.910;2023-01-08T14:25:01;2.50;;;0.30;;
56736;SDS011;42618;51.226;4.910;2023-01-08T14:27:32;7.63;;;0.55;;
56736;SDS011;42618;51.226;4.910;2023-01-08T14:30:00;5.22;;;0.43;;
56736;SDS011;42618;51.226;4.910;2023-01-08T14:32:28;2.92;;;0.50;;
56736;SDS011;42618;51.226;4.910;2023-01-08T14:34:57;6.38;;;0.60;;
56736;SDS011;42618;51.226;4.910;2023-01-08T14:37:30;3.70;;;0.65;;
56736;SDS011;42618;51.226;4.910;2023-01-08T14:39:56;4.70;;;0.55;;
56736;SDS011;42618;51.226;4.910;2023-01-08T14:42:33;0.63;;;0.30;;
56736;SDS011;42618;51.226;4.910;2023-01-08T14:51:03;0.85;;;0.20;;
56736;SDS011;42618;51.226;4.910;2023-01-08T14:53:34;2.65;;;0.40;;
56736;SDS011;42618;51.226;4.910;2023-01-08T14:56:04;1.52;;;0.35;;
56736;SDS011;42618;51.226;4.910;2023-01-08T14:58:39;4.10;;;0.50;;
56736;SDS011;42618;51.226;4.910;2023-01-08T15:01:22;0.88;;;0.40;;
56736;SDS011;42618;51.226;4.910;2023-01-08T15:03:52;1.75;;;0.30;;
56736;SDS011;42618;51.226;4.910;2023-01-08T15:06:31;2.63;;;0.55;;
56736;SDS011;42618;51.226;4.910;2023-01-08T15:08:59;2.60;;;0.40;;
56736;SDS011;42618;51.226;4.910;2023-01-08T15:11:27;2.92;;;0.22;;
56736;SDS011;42618;51.226;4.910;2023-01-08T15:13:56;4.55;;;0.73;;
56736;SDS011;42618;51.226;4.910;2023-01-08T15:19:05;4.50;;;0.55;;
56736;SDS011;42618;51.226;4.910;2023-01-08T15:21:46;1.92;;;0.40;;
56736;SDS011;42618;51.226;4.910;2023-01-08T15:24:22;2.30;;;0.30;;
56736;SDS011;42618;51.226;4.910;2023-01-08T15:27:00;2.53;;;0.35;;
56736;SDS011;42618;51.226;4.910;2023-01-08T15:29:38;3.42;;;0.50;;
56736;SDS011;42618;51.226;4.910;2023-01-08T15:34:40;3.13;;;0.30;;
56736;SDS011;42618;51.226;4.910;2023-01-08T15:37:07;2.92;;;1.00;;
56736;SDS011;42618;51.226;4.910;2023-01-08T15:39:34;3.95;;;0.35;;
56736;SDS011;42618;51.226;4.910;2023-01-08T15:42:17;2.13;;;0.20;;
56736;SDS011;42618;51.226;4.910;2023-01-08T15:45:11;2.88;;;0.50;;
56736;SDS011;42618;51.226;4.910;2023-01-08T15:47:40;1.70;;;0.30;;
56736;SDS011;42618;51.226;4.910;2023-01-08T15:50:07;1.98;;;0.20;;
56736;SDS011;42618;51.226;4.910;2023-01-08T15:52:36;0.68;;;0.30;;
56736;SDS011;42618;51.226;4.910;2023-01-08T15:55:13;3.58;;;0.70;;
56736;SDS011;42618;51.226;4.910;2023-01-08T15:57:43;4.65;;;0.40;;
56736;SDS011;42618;51.226;4.910;2023-01-08T16:00:13;1.88;;;0.43;;
56736;SDS011;42618;51.226;4.910;2023-01-08T16:02:45;2.05;;;0.40;;
56736;SDS011;42618;51.226;4.910;2023-01-08T16:05:13;2.10;;;0.30;;
56736;SDS011;42618;51.226;4.910;2023-01-08T16:07:42;2.03;;;0.40;;
56736;SDS011;42618;51.226;4.910;2023-01-08T16:10:11;2.88;;;0.68;;
56736;SDS011;42618;51.226;4.910;2023-01-08T16:12:39;4.47;;;0.50;;
56736;SDS011;42618;51.226;4.910;2023-01-08T16:15:13;2.58;;;0.55;;
56736;SDS011;42618;51.226;4.910;2023-01-08T16:20:08;5.65;;;0.52;;
56736;SDS011;42618;51.226;4.910;2023-01-08T16:22:39;4.82;;;0.70;;
56736;SDS011;42618;51.226;4.910;2023-01-08T16:25:06;4.68;;;0.88;;
56736;SDS011;42618;51.226;4.910;2023-01-08T16:27:37;8.18;;;1.13;;
56736;SDS011;42618;51.226;4.910;2023-01-08T16:32:40;8.93;;;1.25;;
56736;SDS011;42618;51.226;4.910;2023-01-08T16:35:07;6.05;;;0.70;;
56736;SDS011;42618;51.226;4.910;2023-01-08T16:37:36;2.88;;;0.73;;
56736;SDS011;42618;51.226;4.910;2023-01-08T16:40:07;4.97;;;1.73;;
56736;SDS011;42618;51.226;4.910;2023-01-08T16:42:35;5.28;;;1.45;;
56736;SDS011;42618;51.226;4.910;2023-01-08T16:45:02;3.28;;;0.95;;
56736;SDS011;42618;51.226;4.910;2023-01-08T16:47:29;2.95;;;0.70;;
56736;SDS011;42618;51.226;4.910;2023-01-08T16:49:56;8.75;;;1.15;;
56736;SDS011;42618;51.226;4.910;2023-01-08T16:52:23;7.53;;;1.35;;
56736;SDS011;42618;51.226;4.910;2023-01-08T16:54:52;4.72;;;1.45;;
56736;SDS011;42618;51.226;4.910;2023-01-08T16:57:22;5.95;;;1.40;;
56736;SDS011;42618;51.226;4.910;2023-01-08T16:59:49;4.40;;;0.80;;